createdAt,value
2019-01-19T00:01:22.060Z,26.73
2019-01-19T00:04:02.266Z,26.17
2019-01-19T00:06:51.592Z,24.72
2019-01-19T00:09:25.530Z,24.23
2019-01-19T00:11:59.547Z,22.33
2019-01-19T00:14:28.460Z,22.60
2019-01-19T00:17:09.163Z,22.37
2019-01-19T00:19:55.894Z,23.10
2019-01-19T00:22:45.499Z,21.03
2019-01-19T00:25:28.355Z,21.50
2019-01-19T00:28:17.819Z,20.77
2019-01-19T00:31:00.844Z,21.40
2019-01-19T00:34:04.301Z,20.10
2019-01-19T00:36:41.422Z,21.80
2019-01-19T00:39:31.032Z,18.77
2019-01-19T00:42:08.315Z,19.60
2019-01-19T00:44:51.751Z,16.80
2019-01-19T00:47:38.133Z,18.90
2019-01-19T00:50:52.860Z,17.40
2019-01-19T00:53:45.705Z,17.83
2019-01-19T00:56:17.131Z,16.83
2019-01-19T00:58:55.258Z,17.40
2019-01-19T01:01:50.837Z,17.63
2019-01-19T01:04:37.357Z,15.87
2019-01-19T01:07:23.594Z,15.60
2019-01-19T01:10:18.999Z,14.67
2019-01-19T01:13:04.644Z,16.20
2019-01-19T01:15:48.024Z,15.40
2019-01-19T01:18:36.782Z,14.47
2019-01-19T01:21:20.000Z,14.80
2019-01-19T01:23:57.556Z,16.10
2019-01-19T01:26:28.993Z,15.13
2019-01-19T01:29:15.496Z,14.65
2019-01-19T01:31:46.928Z,14.17
2019-01-19T01:34:18.355Z,14.77
2019-01-19T01:36:52.713Z,14.60
2019-01-19T01:39:27.071Z,13.38
2019-01-19T01:41:58.515Z,13.40
2019-01-19T01:44:52.663Z,12.70
2019-01-19T01:47:48.192Z,13.53
2019-01-19T01:50:22.878Z,12.60
2019-01-19T01:52:59.917Z,12.13
2019-01-19T01:55:31.420Z,12.70
2019-01-19T01:58:02.972Z,12.37
2019-01-19T02:00:57.417Z,10.87
2019-01-19T02:03:40.896Z,11.70
2019-01-19T02:06:18.123Z,12.00
2019-01-19T02:09:12.744Z,12.23
2019-01-19T02:12:02.056Z,10.90
2019-01-19T02:14:33.497Z,11.07
2019-01-19T02:17:11.226Z,12.10
2019-01-19T02:19:57.834Z,10.33
2019-01-19T02:23:02.273Z,11.53
2019-01-19T02:25:52.962Z,10.20
2019-01-19T02:28:33.366Z,10.27
2019-01-19T02:31:22.696Z,10.28
2019-01-19T02:34:00.290Z,9.63
2019-01-19T02:36:44.971Z,10.60
2019-01-19T02:39:22.307Z,10.30
2019-01-19T02:45:38.879Z,10.33
2019-01-19T02:48:19.683Z,9.90
2019-01-19T02:51:00.397Z,9.10
2019-01-19T02:53:51.960Z,10.10
2019-01-19T02:56:59.622Z,8.93
2019-01-19T03:00:02.091Z,8.60
2019-01-19T03:02:49.505Z,9.20
2019-01-19T03:05:25.437Z,9.03
2019-01-19T03:07:59.989Z,10.13
2019-01-19T03:10:59.628Z,8.93
2019-01-19T03:13:46.064Z,8.53
2019-01-19T03:17:01.316Z,8.60
2019-01-19T03:19:38.489Z,8.45
2019-01-19T03:22:16.258Z,7.87
2019-01-19T03:25:22.072Z,8.43
2019-01-19T03:27:56.274Z,8.07
2019-01-19T03:30:50.089Z,7.70
2019-01-19T03:33:57.624Z,7.17
2019-01-19T03:37:06.562Z,7.70
2019-01-19T03:40:16.409Z,7.67
2019-01-19T03:43:10.106Z,7.53
2019-01-19T03:46:15.034Z,7.13
2019-01-19T03:49:00.225Z,8.07
2019-01-19T03:51:31.780Z,6.80
2019-01-19T03:54:21.536Z,6.97
2019-01-19T03:57:07.641Z,7.23
2019-01-19T03:59:44.766Z,7.20
2019-01-19T04:02:50.919Z,6.90
2019-01-19T04:05:34.192Z,6.40
2019-01-19T04:08:25.028Z,6.65
2019-01-19T04:11:11.160Z,7.40
2019-01-19T04:13:54.265Z,6.50
2019-01-19T04:16:31.499Z,6.67
2019-01-19T04:19:11.514Z,6.27
2019-01-19T04:21:57.854Z,6.40
2019-01-19T04:24:28.274Z,6.73
2019-01-19T04:26:56.668Z,6.37
2019-01-19T04:29:25.034Z,6.10
2019-01-19T04:31:53.415Z,5.80
2019-01-19T04:34:22.066Z,6.20
2019-01-19T04:36:50.617Z,5.47
2019-01-19T04:39:19.056Z,6.50
2019-01-19T04:41:47.436Z,6.00
2019-01-19T04:44:15.822Z,5.60
2019-01-19T04:46:44.209Z,6.87
2019-01-19T04:49:12.853Z,5.30
2019-01-19T04:51:41.230Z,5.70
2019-01-19T04:54:09.598Z,5.23
2019-01-19T04:56:37.974Z,5.67
2019-01-19T04:59:06.368Z,5.53
2019-01-19T05:01:34.751Z,5.00
2019-01-19T05:04:03.125Z,5.78
2019-01-19T05:06:31.729Z,4.57
2019-01-19T05:09:00.113Z,5.30
2019-01-19T05:11:28.490Z,4.70
2019-01-19T05:13:56.870Z,5.07
2019-01-19T05:16:25.250Z,4.80
2019-01-19T05:18:53.627Z,5.13
2019-01-19T05:21:22.375Z,4.83
2019-01-19T05:23:50.927Z,4.40
2019-01-19T05:26:19.304Z,4.97
2019-01-19T05:28:47.684Z,4.37
2019-01-19T05:31:16.057Z,5.30
2019-01-19T05:33:44.442Z,4.60
2019-01-19T05:36:12.805Z,4.57
2019-01-19T05:38:41.210Z,4.63
2019-01-19T05:41:09.577Z,4.47
2019-01-19T05:43:37.962Z,5.00
2019-01-19T05:46:06.331Z,4.67
2019-01-19T05:48:34.714Z,4.50
2019-01-19T05:51:03.087Z,4.23
2019-01-19T05:53:31.462Z,4.47
2019-01-19T05:55:59.837Z,4.20
2019-01-19T05:58:28.216Z,4.50
2019-01-19T06:00:56.591Z,4.20
2019-01-19T06:03:24.975Z,4.30
2019-01-19T06:05:53.618Z,4.87
2019-01-19T06:08:22.001Z,4.57
2019-01-19T06:10:50.374Z,4.20
2019-01-19T06:13:19.589Z,4.57
2019-01-19T06:15:47.974Z,3.90
2019-01-19T06:18:16.359Z,4.10
2019-01-19T06:20:44.742Z,4.00
2019-01-19T06:23:13.115Z,3.70
2019-01-19T06:25:41.497Z,3.77
2019-01-19T06:28:09.874Z,3.47
2019-01-19T06:30:38.255Z,3.60
2019-01-19T06:33:06.683Z,4.10
2019-01-19T06:35:35.035Z,3.90
2019-01-19T06:38:03.397Z,3.77
2019-01-19T06:40:31.795Z,3.97
2019-01-19T06:43:00.169Z,3.57
2019-01-19T06:45:28.550Z,4.10
2019-01-19T06:47:56.989Z,4.10
2019-01-19T06:50:25.376Z,3.37
2019-01-19T06:52:53.747Z,3.23
2019-01-19T06:55:25.374Z,4.10
2019-01-19T06:57:53.739Z,3.93
2019-01-19T07:00:22.117Z,3.20
2019-01-19T07:02:50.496Z,3.20
2019-01-19T07:05:18.891Z,3.80
2019-01-19T07:07:47.263Z,3.60
2019-01-19T07:10:20.933Z,3.70
2019-01-19T07:12:50.162Z,3.20
2019-01-19T07:15:18.695Z,3.60
2019-01-19T07:17:47.051Z,3.10
2019-01-19T07:20:24.440Z,3.13
2019-01-19T07:22:52.808Z,3.53
2019-01-19T07:25:21.191Z,3.50
2019-01-19T07:27:50.265Z,3.37
2019-01-19T07:30:18.645Z,3.10
2019-01-19T07:32:47.582Z,2.80
2019-01-19T07:35:16.816Z,3.43
2019-01-19T07:37:45.182Z,2.93
2019-01-19T07:40:15.487Z,2.50
2019-01-19T07:42:44.538Z,3.27
2019-01-19T07:45:14.659Z,3.00
2019-01-19T07:47:43.585Z,2.97
2019-01-19T07:50:14.829Z,3.00
2019-01-19T07:52:43.395Z,2.80
2019-01-19T07:55:14.002Z,3.00
2019-01-19T07:57:42.393Z,2.90
2019-01-19T08:00:16.667Z,2.70
2019-01-19T08:02:45.053Z,2.33
2019-01-19T08:05:13.427Z,2.97
2019-01-19T08:07:41.885Z,2.90
2019-01-19T08:10:13.206Z,3.40
2019-01-19T08:12:41.584Z,3.07
2019-01-19T08:15:13.085Z,2.67
2019-01-19T08:17:41.469Z,2.53
2019-01-19T08:20:12.379Z,2.70
2019-01-19T08:22:40.768Z,2.65
2019-01-19T08:25:11.168Z,2.43
2019-01-19T08:27:39.548Z,2.90
2019-01-19T08:30:23.216Z,3.27
2019-01-19T08:32:51.720Z,2.67
2019-01-19T08:35:20.966Z,2.37
2019-01-19T08:37:49.487Z,2.20
2019-01-19T08:40:23.851Z,2.20
2019-01-19T08:42:53.882Z,3.23
2019-01-19T08:45:22.318Z,2.40
2019-01-19T08:47:51.164Z,2.90
2019-01-19T08:50:19.535Z,2.37
2019-01-19T08:52:47.986Z,2.50
2019-01-19T08:55:16.353Z,3.00
2019-01-19T08:57:44.736Z,2.97
2019-01-19T09:00:21.043Z,2.67
2019-01-19T09:02:49.568Z,2.83
2019-01-19T09:05:18.309Z,2.20
2019-01-19T09:07:46.686Z,2.33
2019-01-19T09:10:19.213Z,2.37
2019-01-19T09:12:47.589Z,3.10
2019-01-19T09:15:21.884Z,2.70
2019-01-19T09:17:50.271Z,2.60
2019-01-19T09:20:18.880Z,2.17
2019-01-19T09:22:49.065Z,2.40
2019-01-19T09:25:17.507Z,2.50
2019-01-19T09:27:45.909Z,2.67
2019-01-19T09:30:19.921Z,3.20
2019-01-19T09:32:48.381Z,3.00
2019-01-19T09:35:17.089Z,2.87
2019-01-19T09:37:46.919Z,2.67
2019-01-19T09:40:17.356Z,2.60
2019-01-19T09:42:46.262Z,2.37
2019-01-19T09:45:19.796Z,2.47
2019-01-19T09:47:48.236Z,2.30
2019-01-19T09:50:17.979Z,2.37
2019-01-19T09:52:46.489Z,2.50
2019-01-19T09:55:15.098Z,2.37
2019-01-19T09:57:43.572Z,2.57
2019-01-19T10:00:14.937Z,2.53
2019-01-19T10:02:43.292Z,2.40
2019-01-19T10:05:15.101Z,2.30
2019-01-19T10:07:48.419Z,2.30
2019-01-19T10:10:14.349Z,2.60
2019-01-19T10:12:43.156Z,2.43
2019-01-19T10:15:14.241Z,2.50
2019-01-19T10:17:42.606Z,2.20
2019-01-19T10:20:29.191Z,2.40
2019-01-19T10:22:57.631Z,2.53
2019-01-19T10:25:26.017Z,2.33
2019-01-19T10:27:54.472Z,2.70
2019-01-19T10:30:27.564Z,2.10
2019-01-19T10:32:56.056Z,2.33
2019-01-19T10:35:24.508Z,2.20
2019-01-19T10:37:56.705Z,2.40
2019-01-19T10:40:23.161Z,2.30
2019-01-19T10:42:52.247Z,2.00
2019-01-19T10:45:25.885Z,2.23
2019-01-19T10:47:54.626Z,1.97
2019-01-19T10:50:23.006Z,2.10
2019-01-19T10:52:52.489Z,2.27
2019-01-19T10:55:24.827Z,2.37
2019-01-19T10:57:53.203Z,2.10
2019-01-19T11:00:30.816Z,2.10
2019-01-19T11:02:59.917Z,2.13
2019-01-19T11:05:28.676Z,2.17
2019-01-19T11:08:03.455Z,2.12
2019-01-19T11:10:32.134Z,2.10
2019-01-19T11:13:00.673Z,2.00
2019-01-19T11:15:29.134Z,1.67
2019-01-19T11:17:57.500Z,1.90
2019-01-19T11:20:30.457Z,2.23
2019-01-19T11:23:02.166Z,2.53
2019-01-19T11:25:31.009Z,1.67
2019-01-19T11:27:59.460Z,2.17
2019-01-19T11:30:32.613Z,1.93
2019-01-19T11:33:01.066Z,1.93
2019-01-19T11:35:29.770Z,1.90
2019-01-19T11:37:58.318Z,2.00
2019-01-19T11:40:32.502Z,1.90
2019-01-19T11:43:00.878Z,1.62
2019-01-19T11:45:29.244Z,1.90
2019-01-19T11:47:57.639Z,1.90
2019-01-19T11:50:26.013Z,1.80
2019-01-19T11:52:54.394Z,1.93
2019-01-19T11:55:22.941Z,2.07
2019-01-19T11:57:53.664Z,2.03
2019-01-19T12:00:31.111Z,1.60
2019-01-19T12:02:59.558Z,2.10
2019-01-19T12:05:27.927Z,1.70
2019-01-19T12:07:56.308Z,1.60
2019-01-19T12:10:30.663Z,1.67
2019-01-19T12:12:59.350Z,1.75
2019-01-19T12:15:28.233Z,1.42
2019-01-19T12:17:56.953Z,1.60
2019-01-19T12:20:34.156Z,1.93
2019-01-19T12:23:02.538Z,1.93
2019-01-19T12:25:30.975Z,1.75
2019-01-19T12:27:59.353Z,1.50
2019-01-19T12:30:32.011Z,1.70
2019-01-19T12:33:00.463Z,1.80
2019-01-19T12:35:29.028Z,1.30
2019-01-19T12:37:58.537Z,1.73
2019-01-19T12:40:28.841Z,1.37
2019-01-19T12:42:59.776Z,1.60
2019-01-19T12:45:31.225Z,1.87
2019-01-19T12:47:59.725Z,1.90
2019-01-19T12:50:28.263Z,1.70
2019-01-19T12:52:56.652Z,1.67
2019-01-19T12:55:25.018Z,1.80
2019-01-19T12:57:53.585Z,1.77
2019-01-19T13:00:24.709Z,1.70
2019-01-19T13:02:54.372Z,1.80
2019-01-19T13:05:35.246Z,1.67
2019-01-19T13:08:06.168Z,1.40
2019-01-19T13:10:40.779Z,1.80
2019-01-19T13:13:09.702Z,1.60
2019-01-19T13:15:50.193Z,1.60
2019-01-19T13:18:33.937Z,2.00
2019-01-19T13:21:28.163Z,1.73
2019-01-19T13:24:29.991Z,1.70
2019-01-19T13:27:16.580Z,1.70
2019-01-19T13:30:13.907Z,1.73
2019-01-19T13:32:51.333Z,1.97
2019-01-19T13:35:45.500Z,2.90
2019-01-19T13:38:52.018Z,2.20
2019-01-19T13:41:29.543Z,2.00
2019-01-19T13:44:09.928Z,1.90
2019-01-19T13:46:56.632Z,1.80
2019-01-19T13:49:50.789Z,1.90
2019-01-19T13:52:24.693Z,2.07
2019-01-19T13:55:05.437Z,1.83
2019-01-19T13:57:45.549Z,1.92
2019-01-19T14:00:22.559Z,1.83
2019-01-19T14:03:13.284Z,2.27
2019-01-19T14:05:50.590Z,1.80
2019-01-19T14:08:31.057Z,2.50
2019-01-19T14:11:26.697Z,2.27
2019-01-19T14:14:14.977Z,2.17
2019-01-19T14:17:06.204Z,1.60
2019-01-19T14:19:52.355Z,2.03
2019-01-19T14:22:38.522Z,2.60
2019-01-19T14:25:30.854Z,2.35
2019-01-19T14:28:30.585Z,1.63
2019-01-19T14:31:40.791Z,1.67
2019-01-19T14:34:18.030Z,2.10
2019-01-19T14:36:51.276Z,2.13
2019-01-19T14:39:34.927Z,1.70
2019-01-19T14:42:24.701Z,1.70
2019-01-19T14:45:05.346Z,1.83
2019-01-19T14:48:09.950Z,1.80
2019-01-19T14:50:57.970Z,1.80
2019-01-19T14:53:45.975Z,2.00
2019-01-19T14:56:36.878Z,1.87
2019-01-19T14:59:11.269Z,1.50
2019-01-19T15:02:04.621Z,1.97
2019-01-19T15:04:45.102Z,2.43
2019-01-19T15:07:24.825Z,1.93
2019-01-19T15:10:05.376Z,1.60
2019-01-19T15:12:42.257Z,2.17
2019-01-19T15:15:22.491Z,1.80
2019-01-19T15:18:02.701Z,1.67
2019-01-19T15:20:46.327Z,1.33
2019-01-19T15:23:36.181Z,1.80
2019-01-19T15:26:27.153Z,1.77
2019-01-19T15:29:25.690Z,1.80
2019-01-19T15:32:05.470Z,1.83
2019-01-19T15:35:11.500Z,1.97
2019-01-19T15:38:00.959Z,1.70
2019-01-19T15:40:49.179Z,1.67
2019-01-19T15:43:35.703Z,1.70
2019-01-19T15:46:17.546Z,2.03
2019-01-19T15:48:54.527Z,1.87
2019-01-19T15:51:34.700Z,1.62
2019-01-19T15:54:21.374Z,1.90
2019-01-19T15:57:07.661Z,1.73
2019-01-19T15:59:44.674Z,1.90
2019-01-19T16:02:43.881Z,2.27
2019-01-19T16:05:18.348Z,1.73
2019-01-19T16:07:49.777Z,1.60
2019-01-19T16:10:39.622Z,2.20
2019-01-19T16:13:20.023Z,1.83
2019-01-19T16:15:54.531Z,2.10
2019-01-19T16:18:49.516Z,1.90
2019-01-19T16:21:26.549Z,1.80
2019-01-19T16:24:10.288Z,1.77
2019-01-19T16:26:53.470Z,1.80
2019-01-19T16:29:30.406Z,1.80
2019-01-19T16:32:08.337Z,1.97
2019-01-19T16:34:57.972Z,1.97
2019-01-19T16:37:37.967Z,22.20
2019-01-19T16:40:34.495Z,180.37
2019-01-19T16:43:17.733Z,34.60
2019-01-19T16:46:05.663Z,19.62
2019-01-19T16:48:52.013Z,71.73
2019-01-19T16:51:47.860Z,30.95
2019-01-19T16:54:34.617Z,108.40
2019-01-19T16:57:20.852Z,61.35
2019-01-19T17:00:09.224Z,45.27
2019-01-19T17:03:01.295Z,35.90
2019-01-19T17:05:38.534Z,30.40
2019-01-19T17:08:15.849Z,28.43
2019-01-19T17:10:56.025Z,27.37
2019-01-19T17:13:43.622Z,25.67
2019-01-19T17:16:23.656Z,24.97
2019-01-19T17:19:00.967Z,24.00
2019-01-19T17:21:46.661Z,22.37
2019-01-19T17:24:29.688Z,19.80
2019-01-19T17:27:09.899Z,19.13
2019-01-19T17:29:53.268Z,19.00
2019-01-19T17:32:39.989Z,85.73
2019-01-19T17:35:16.667Z,100.63
2019-01-19T17:37:51.158Z,63.30
2019-01-19T17:40:52.880Z,57.47
2019-01-19T17:43:27.028Z,48.93
2019-01-19T17:45:58.487Z,40.37
2019-01-19T17:48:38.657Z,37.57
2019-01-19T17:51:21.752Z,34.90
2019-01-19T17:53:55.763Z,32.73
2019-01-19T17:56:32.786Z,29.60
2019-01-19T17:59:25.377Z,28.17
2019-01-19T18:02:05.851Z,26.50
2019-01-19T18:04:49.375Z,24.83
2019-01-19T18:07:35.616Z,23.47
2019-01-19T18:10:26.783Z,33.87
2019-01-19T18:13:30.254Z,50.40
2019-01-19T18:16:19.051Z,31.60
2019-01-19T18:19:08.871Z,31.87
2019-01-19T18:21:59.702Z,26.80
2019-01-19T18:24:59.614Z,26.67
2019-01-19T18:27:40.217Z,23.03
2019-01-19T18:30:20.636Z,22.17
2019-01-19T18:33:24.025Z,20.90
2019-01-19T18:36:19.137Z,19.33
2019-01-19T18:39:06.667Z,17.40
2019-01-19T18:41:55.052Z,16.57
2019-01-19T18:44:32.562Z,18.00
2019-01-19T18:47:22.306Z,15.93
2019-01-19T18:50:11.466Z,14.87
2019-01-19T18:53:01.130Z,13.43
2019-01-19T18:55:44.404Z,14.60
2019-01-19T18:58:32.327Z,13.80
2019-01-19T19:01:21.718Z,14.00
2019-01-19T19:03:58.735Z,12.13
2019-01-19T19:06:42.239Z,12.73
2019-01-19T19:09:36.677Z,12.50
2019-01-19T19:12:25.850Z,11.70
2019-01-19T19:14:57.292Z,11.30
2019-01-19T19:17:34.785Z,11.27
2019-01-19T19:20:12.206Z,10.27
2019-01-19T19:22:46.232Z,9.67
2019-01-19T19:25:26.374Z,9.93
2019-01-19T19:28:20.460Z,9.30
2019-01-19T19:31:13.138Z,8.93
2019-01-19T19:33:56.343Z,8.73
2019-01-19T19:36:45.950Z,16.63
2019-01-19T19:39:40.203Z,18.53
2019-01-19T19:42:37.599Z,15.00
2019-01-19T19:45:28.656Z,13.10
2019-01-19T19:48:20.802Z,13.33
2019-01-19T19:50:55.002Z,12.13
2019-01-19T19:53:23.383Z,11.00
2019-01-19T19:55:50.617Z,10.40
2019-01-19T19:58:18.997Z,10.20
2019-01-19T20:00:47.943Z,9.33
2019-01-19T20:03:16.308Z,8.60
2019-01-19T20:05:44.690Z,9.80
2019-01-19T20:08:13.070Z,9.30
2019-01-19T20:10:41.454Z,9.13
2019-01-19T20:13:09.828Z,8.47
2019-01-19T20:15:38.352Z,7.60
2019-01-19T20:18:06.733Z,8.00
2019-01-19T20:20:35.109Z,7.87
2019-01-19T20:23:03.487Z,7.70
2019-01-19T20:25:31.871Z,7.07
2019-01-19T20:28:00.244Z,7.30
2019-01-19T20:30:28.630Z,6.80
2019-01-19T20:32:56.999Z,7.43
2019-01-19T20:35:25.368Z,7.30
2019-01-19T20:37:53.754Z,6.83
2019-01-19T20:40:24.511Z,6.73
2019-01-19T20:42:52.236Z,7.20
2019-01-19T20:45:20.603Z,6.67
2019-01-19T20:47:48.986Z,5.97
2019-01-19T20:50:17.360Z,6.73
2019-01-19T20:52:45.749Z,6.57
2019-01-19T20:55:14.278Z,5.78
2019-01-19T20:57:42.716Z,5.73
2019-01-19T21:00:15.239Z,5.50
2019-01-19T21:02:43.629Z,6.23
2019-01-19T21:05:12.089Z,5.20
2019-01-19T21:07:40.467Z,6.20
2019-01-19T21:10:09.269Z,5.10
2019-01-19T21:12:37.665Z,4.90
2019-01-19T21:15:09.077Z,4.93
2019-01-19T21:17:37.464Z,5.17
2019-01-19T21:20:08.780Z,4.50
2019-01-19T21:22:37.163Z,4.70
2019-01-19T21:25:07.378Z,4.83
2019-01-19T21:27:35.775Z,4.73
2019-01-19T21:30:06.829Z,5.30
2019-01-19T21:32:35.210Z,4.93
2019-01-19T21:35:04.716Z,5.03
2019-01-19T21:37:33.099Z,4.23
2019-01-19T21:40:01.473Z,4.47
2019-01-19T21:42:30.128Z,4.83
2019-01-19T21:44:58.494Z,3.90
2019-01-19T21:47:27.160Z,4.37
2019-01-19T21:49:55.530Z,4.30
2019-01-19T21:52:23.910Z,3.77
2019-01-19T21:54:52.284Z,3.93
2019-01-19T21:57:20.662Z,3.63
2019-01-19T21:59:49.036Z,4.30
2019-01-19T22:02:17.421Z,3.80
2019-01-19T22:04:45.808Z,4.40
2019-01-19T22:07:14.173Z,4.10
2019-01-19T22:09:42.548Z,3.83
2019-01-19T22:12:10.924Z,3.85
2019-01-19T22:14:39.340Z,3.83
2019-01-19T22:17:07.719Z,4.10
2019-01-19T22:19:36.184Z,4.53
2019-01-19T22:22:04.697Z,4.07
2019-01-19T22:24:33.093Z,4.10
2019-01-19T22:27:01.729Z,3.57
2019-01-19T22:29:30.680Z,3.60
2019-01-19T22:31:59.054Z,3.50
2019-01-19T22:34:27.459Z,4.00
2019-01-19T22:36:55.867Z,3.83
2019-01-19T22:39:24.248Z,3.10
2019-01-19T22:41:52.614Z,3.77
2019-01-19T22:44:21.063Z,3.30
2019-01-19T22:46:49.434Z,3.67
2019-01-19T22:49:17.889Z,2.90
2019-01-19T22:51:47.038Z,3.55
2019-01-19T22:54:15.434Z,3.50
2019-01-19T22:56:43.801Z,3.93
2019-01-19T22:59:12.256Z,3.60
2019-01-19T23:01:42.162Z,3.40
2019-01-19T23:04:10.762Z,3.73
2019-01-19T23:06:39.141Z,4.07
2019-01-19T23:09:10.740Z,3.70
2019-01-19T23:11:39.355Z,3.30
2019-01-19T23:14:09.433Z,3.43
2019-01-19T23:16:37.810Z,3.70
2019-01-19T23:19:06.173Z,3.52
2019-01-19T23:21:34.571Z,3.07
2019-01-19T23:24:03.366Z,3.60
2019-01-19T23:26:32.421Z,3.10
2019-01-19T23:29:01.001Z,3.60
2019-01-19T23:31:29.381Z,3.30
2019-01-19T23:33:57.849Z,3.30
2019-01-19T23:36:26.236Z,3.13
2019-01-19T23:38:54.666Z,3.50
2019-01-19T23:41:23.044Z,3.27
2019-01-19T23:43:51.418Z,3.50
2019-01-19T23:46:19.802Z,3.20
2019-01-19T23:48:48.227Z,2.70
2019-01-19T23:51:16.676Z,2.98
2019-01-19T23:53:45.048Z,3.87
2019-01-19T23:56:13.438Z,3.30
2019-01-19T23:58:41.882Z,3.37
